Time;durP1;ratioP1;P1;durP2;ratioP2;P2;SDS_P1;SDS_P2;PMS_P1;PMS_P2;Temp;Humidity;BMP_temperature;BMP_pressure;BME280_temperature;BME280_humidity;BME280_pressure;Samples;Min_cycle;Max_cycle;Signal;HPM_P1;HPM_P2
2023/11/03 00:01:34;;;;;;;8.95;3.97;;;9.90;99.90;;;10.09;100.00;97336.75;4823270;29;20404;-63
2023/11/03 00:04:08;;;;;;;9.90;4.22;;;9.90;99.90;;;10.11;100.00;97316.41;4823081;29;20073;-62
2023/11/03 00:06:42;;;;;;;7.45;3.90;;;9.90;99.90;;;10.02;100.00;97297.53;4823433;29;20115;-63
2023/11/03 00:09:14;;;;;;;11.52;4.10;;;9.90;99.90;;;10.06;100.00;97300.84;4823403;29;20149;-64
2023/11/03 00:11:43;;;;;;;15.80;4.32;;;9.90;99.90;;;9.91;100.00;97289.38;4823924;29;20058;-65
2023/11/03 00:14:12;;;;;;;8.50;4.20;;;9.90;99.90;;;10.00;100.00;97346.94;4823046;29;20047;-65
2023/11/03 00:16:41;;;;;;;11.93;4.47;;;9.80;99.90;;;10.04;100.00;97331.75;4823146;29;20054;-65
2023/11/03 00:19:10;;;;;;;9.02;4.05;;;9.90;99.90;;;10.08;100.00;97335.06;4823301;29;20140;-66
2023/11/03 00:21:38;;;;;;;10.13;4.13;;;9.90;99.90;;;10.14;100.00;97342.66;4823773;29;20576;-66
2023/11/03 00:24:08;;;;;;;10.25;4.18;;;9.90;99.90;;;10.22;100.00;97357.09;4823149;29;20500;-66
2023/11/03 00:26:38;;;;;;;11.68;4.32;;;10.00;99.90;;;10.22;100.00;97356.25;4826123;29;20058;-67
2023/11/03 00:29:07;;;;;;;13.18;4.53;;;10.00;99.90;;;10.29;100.00;97354.94;4825715;29;20046;-66
2023/11/03 00:31:36;;;;;;;14.07;4.40;;;10.10;99.90;;;10.30;100.00;97368.03;4826924;29;20046;-67
2023/11/03 00:34:05;;;;;;;8.60;4.18;;;10.10;99.90;;;10.40;100.00;97389.47;4826487;29;20360;-66
2023/11/03 00:36:33;;;;;;;8.02;4.30;;;10.20;99.90;;;10.26;100.00;97344.56;4825510;29;20489;-67
2023/11/03 00:39:01;;;;;;;9.02;3.83;;;10.20;99.90;;;10.35;100.00;97359.84;4826971;29;20481;-67
2023/11/03 00:41:30;;;;;;;14.40;4.75;;;10.20;99.90;;;10.37;100.00;97394.94;4826528;29;20470;-67
2023/11/03 00:44:00;;;;;;;12.30;5.07;;;10.20;99.90;;;9.67;100.00;97259.19;4826357;29;20084;-66
2023/11/03 00:46:29;;;;;;;13.70;4.80;;;10.20;99.90;;;10.42;100.00;97377.88;4826462;29;20519;-66
2023/11/03 00:48:58;;;;;;;13.70;4.97;;;10.20;99.90;;;10.50;100.00;97386.22;4826295;29;20082;-67
2023/11/03 00:51:27;;;;;;;11.80;4.95;;;10.30;99.90;;;10.51;100.00;97416.13;4826157;29;20054;-67
2023/11/03 00:53:55;;;;;;;17.52;5.47;;;10.30;99.90;;;10.47;100.00;97404.03;4824669;29;20046;-67
2023/11/03 00:56:24;;;;;;;12.15;6.25;;;10.30;99.90;;;10.52;100.00;97405.47;4826241;29;20129;-67
2023/11/03 00:58:53;;;;;;;16.23;7.95;;;10.30;99.90;;;10.54;100.00;97394.78;4824844;29;20145;-67
2023/11/03 01:01:23;;;;;;;16.77;7.20;;;10.30;99.90;;;10.52;100.00;97402.81;4826144;29;20078;-67
2023/11/03 01:03:52;;;;;;;16.00;7.78;;;10.40;99.90;;;10.58;100.00;97414.81;4825914;29;20057;-67
2023/11/03 01:06:22;;;;;;;15.52;7.13;;;10.40;99.90;;;10.54;100.00;97414.16;4825833;29;20057;-67
2023/11/03 01:08:51;;;;;;;12.70;6.43;;;10.40;99.90;;;10.61;100.00;97436.59;4825106;29;20050;-66
2023/11/03 01:11:23;;;;;;;15.77;6.50;;;10.40;99.90;;;10.62;100.00;97443.59;4825812;29;20137;-67
2023/11/03 01:13:52;;;;;;;16.50;7.35;;;10.40;99.90;;;10.56;100.00;97417.53;4825801;29;20053;-67
2023/11/03 01:16:23;;;;;;;18.58;8.32;;;10.40;99.90;;;10.61;100.00;97444.53;4825896;29;20091;-67
2023/11/03 01:18:51;;;;;;;;;;;10.40;99.90;;;10.59;100.00;97443.78;4825965;29;20425;-67
2023/11/03 01:21:22;;;;;;;8.93;4.90;;;10.40;99.90;;;10.52;100.00;97450.38;4826031;29;19925;-66
2023/11/03 01:23:52;;;;;;;;;;;10.30;99.90;;;10.56;100.00;97421.97;4826457;29;20126;-66
2023/11/03 01:26:24;;;;;;;13.43;6.00;;;10.40;99.90;;;10.53;100.00;97430.09;4809569;29;19924;-67
2023/11/03 01:28:53;;;;;;;13.90;5.90;;;10.40;99.90;;;10.59;100.00;97448.19;4825930;29;20062;-67
2023/11/03 01:31:23;;;;;;;12.52;5.45;;;10.40;99.90;;;10.64;100.00;97448.78;4825998;29;20597;-66
2023/11/03 01:33:51;;;;;;;15.30;5.50;;;10.40;99.90;;;10.73;100.00;97453.53;4824360;29;20106;-66
2023/11/03 01:36:20;;;;;;;15.90;5.13;;;10.50;99.90;;;10.74;100.00;97442.03;4825013;29;20082;-67
2023/11/03 01:38:49;;;;;;;18.05;4.82;;;10.50;99.90;;;10.73;100.00;97441.16;4825090;29;20385;-67
2023/11/03 01:41:17;;;;;;;16.90;5.38;;;10.60;99.90;;;10.82;100.00;97450.31;4824167;29;20078;-66
2023/11/03 01:44:03;;;;;;;17.92;4.97;;;10.60;99.90;;;10.80;100.00;97429.28;4825362;29;20060;-66
2023/11/03 01:46:34;;;;;;;20.42;4.75;;;10.70;99.90;;;10.87;100.00;97437.69;4825036;29;20050;-66
2023/11/03 01:49:05;;;;;;;22.42;5.28;;;10.70;99.90;;;10.96;100.00;97445.06;4825305;29;20557;-67
2023/11/03 01:51:34;;;;;;;20.73;4.82;;;10.70;99.90;;;10.88;100.00;97429.66;4808943;29;20085;-66
2023/11/03 01:54:04;;;;;;;14.30;4.45;;;10.70;99.90;;;10.87;100.00;97427.97;4825495;29;20054;-67
2023/11/03 01:56:34;;;;;;;18.73;4.88;;;10.70;99.90;;;10.90;100.00;97435.72;4824254;29;20086;-67
2023/11/03 01:59:05;;;;;;;20.83;5.95;;;10.70;99.90;;;10.92;100.00;97422.38;4825396;29;20148;-67
2023/11/03 02:01:37;;;;;;;18.83;4.90;;;10.70;99.90;;;10.99;100.00;97459.88;4809016;29;20082;-67
2023/11/03 02:04:06;;;;;;;22.08;5.13;;;10.80;99.90;;;11.01;100.00;97448.28;4825587;29;20038;-67
2023/11/03 02:06:34;;;;;;;19.40;5.15;;;10.80;99.90;;;10.93;100.00;97442.63;4824880;29;20064;-67
2023/11/03 02:09:05;;;;;;;19.65;5.57;;;10.80;99.90;;;10.96;100.00;97431.84;4825197;29;20050;-68
2023/11/03 02:11:33;;;;;;;29.73;6.45;;;10.80;99.90;;;11.00;100.00;97428.06;4823960;29;20061;-67
2023/11/03 02:14:01;;;;;;;23.58;5.55;;;10.80;99.90;;;10.94;100.00;97428.44;4824880;29;20106;-67
2023/11/03 02:16:30;;;;;;;30.58;5.97;;;10.70;99.90;;;10.93;100.00;97445.25;4823939;29;20145;-67
2023/11/03 02:19:00;;;;;;;27.52;5.75;;;10.70;99.90;;;10.88;100.00;97434.94;4825391;29;20502;-67
2023/11/03 02:21:28;;;;;;;32.72;6.70;;;10.70;99.90;;;10.78;100.00;97415.28;4825354;29;20044;-67
2023/11/03 02:23:58;;;;;;;33.40;6.93;;;10.70;99.90;;;10.71;100.00;97400.75;4824981;29;20472;-66
2023/11/03 02:26:26;;;;;;;29.07;6.60;;;10.70;99.90;;;10.95;100.00;97466.31;4823560;29;20598;-67
2023/11/03 02:28:55;;;;;;;27.33;6.30;;;10.70;99.90;;;10.89;100.00;97465.75;4823363;29;20493;-67
2023/11/03 02:31:24;;;;;;;29.85;6.72;;;10.70;99.90;;;10.89;100.00;97465.75;4808324;29;20146;-67
2023/11/03 02:33:53;;;;;;;25.65;6.18;;;10.70;99.90;;;10.90;100.00;97488.56;4823429;29;20066;-67
2023/11/03 02:36:24;;;;;;;29.45;5.43;;;10.70;99.90;;;10.86;100.00;97468.56;4824492;29;20072;-67
2023/11/03 02:38:54;;;;;;;25.77;6.03;;;10.70;99.90;;;10.91;100.00;97449.78;4824471;29;20050;-67
2023/11/03 02:41:24;;;;;;;30.77;6.03;;;10.70;99.90;;;10.86;100.00;97478.28;4824493;29;20058;-67
2023/11/03 02:43:52;;;;;;;34.55;6.43;;;10.70;99.90;;;10.89;100.00;97489.53;4808296;29;20085;-66
2023/11/03 02:46:23;;;;;;;24.67;5.13;;;10.70;99.90;;;10.88;100.00;97479.03;4823420;29;20415;-66
2023/11/03 02:48:52;;;;;;;29.25;5.60;;;10.70;99.90;;;10.89;100.00;97488.69;4824309;29;20054;-67
2023/11/03 02:51:20;;;;;;;18.13;4.97;;;10.70;99.90;;;10.90;100.00;97480.66;4824494;29;20489;-66
2023/11/03 02:53:48;;;;;;;20.42;6.00;;;10.70;99.90;;;10.96;100.00;97497.94;4824761;29;20079;-66
2023/11/03 02:56:24;;;;;;;26.33;5.63;;;10.80;99.90;;;11.02;100.00;97500.22;4824721;29;20062;-66
2023/11/03 02:58:52;;;;;;;9.13;3.63;;;10.80;99.90;;;10.90;100.00;97487.72;4823395;29;20501;-66
2023/11/03 03:01:27;;;;;;;12.75;3.53;;;10.70;99.90;;;10.94;100.00;97493.69;4824518;29;20046;-66
2023/11/03 03:03:55;;;;;;;16.15;4.65;;;10.70;99.90;;;10.93;100.00;97505.19;4824466;29;20071;-66
2023/11/03 03:06:24;;;;;;;16.38;4.80;;;10.70;99.90;;;10.90;100.00;97522.09;4824369;29;20066;-66
2023/11/03 03:08:52;;;;;;;17.85;4.55;;;10.70;99.90;;;10.94;100.00;97528.91;4824642;29;20067;-67
2023/11/03 03:11:23;;;;;;;24.42;5.60;;;10.70;99.90;;;10.98;100.00;97513.69;4823466;29;20058;-67
2023/11/03 03:13:51;;;;;;;16.58;4.75;;;10.80;99.90;;;10.93;100.00;97500.78;4824251;29;20054;-67
2023/11/03 03:16:21;;;;;;;11.70;4.13;;;10.80;99.90;;;11.01;100.00;97509.09;4824142;29;20500;-67
2023/11/03 03:18:50;;;;;;;16.88;5.80;;;10.80;99.90;;;11.03;100.00;97501.06;4824143;29;20145;-67
2023/11/03 03:21:19;;;;;;;20.08;5.13;;;11.00;99.90;;;11.24;100.00;97524.44;4824051;29;20107;-67
2023/11/03 03:23:49;;;;;;;29.35;6.65;;;11.00;99.90;;;11.26;100.00;97524.34;4824270;29;20084;-67
2023/11/03 03:26:17;;;;;;;30.08;6.43;;;11.10;99.90;;;11.25;100.00;97499.66;4824154;29;20112;-67
2023/11/03 03:28:47;;;;;;;28.13;6.85;;;11.20;99.90;;;11.39;100.00;97531.44;4824099;29;20450;-66
2023/11/03 03:31:16;;;;;;;30.33;6.63;;;11.20;99.90;;;11.49;100.00;97548.44;4822945;29;20062;-66
2023/11/03 03:33:46;;;;;;;30.77;6.70;;;11.30;99.90;;;11.48;100.00;97545.88;4822835;29;20065;-67
2023/11/03 03:36:15;;;;;;;35.92;7.13;;;11.30;99.90;;;11.54;100.00;97535.78;4824088;29;20450;-67
2023/11/03 03:38:43;;;;;;;32.03;7.03;;;11.40;99.90;;;11.58;100.00;97544.38;4822702;29;20111;-67
2023/11/03 03:41:13;;;;;;;25.90;6.13;;;11.40;99.90;;;11.62;100.00;97546.75;4807371;29;20054;-67
2023/11/03 03:43:42;;;;;;;34.80;6.87;;;11.40;99.90;;;11.56;100.00;97552.41;4823710;29;20441;-67
2023/11/03 03:46:11;;;;;;;32.60;6.70;;;11.40;99.90;;;11.65;100.00;97551.00;4823791;29;20368;-67
2023/11/03 03:48:40;;;;;;;37.67;7.87;;;11.40;99.90;;;11.65;100.00;97573.03;4823852;29;20444;-67
2023/11/03 03:51:08;;;;;;;43.47;8.38;;;11.50;99.90;;;11.71;100.00;97569.19;4822706;29;20046;-67
2023/11/03 03:53:36;;;;;;;44.05;8.63;;;11.50;99.90;;;11.70;100.00;97570.97;4824277;29;20767;-67
2023/11/03 03:56:07;;;;;;;35.83;7.50;;;11.50;99.90;;;11.59;100.00;97573.38;4822934;29;20445;-67
2023/11/03 03:58:38;;;;;;;48.53;8.73;;;11.40;99.90;;;11.04;100.00;97460.44;4823763;29;20111;-67
2023/11/03 04:01:07;;;;;;;35.95;7.40;;;11.40;99.90;;;11.66;100.00;97580.03;4828220;29;20064;-67
2023/11/03 04:03:39;;;;;;;44.42;9.05;;;11.40;99.90;;;11.57;100.00;97574.44;4829525;29;20043;-67
2023/11/03 04:06:10;;;;;;;45.63;8.45;;;11.40;99.90;;;11.50;100.00;97579.25;4829750;29;20061;-67
2023/11/03 04:08:39;;;;;;;43.35;7.80;;;11.40;99.90;;;11.49;100.00;97587.28;4829529;29;20049;-67
2023/11/03 04:11:07;;;;;;;28.10;6.50;;;11.40;99.90;;;11.43;100.00;97607.03;4829653;29;20417;-66
2023/11/03 04:13:35;;;;;;;35.58;6.55;;;11.30;99.90;;;11.43;100.00;97611.47;4829282;29;20466;-67
2023/11/03 04:16:06;;;;;;;38.08;7.13;;;11.20;99.90;;;11.45;100.00;97615.72;4829332;29;20228;-66
2023/11/03 04:18:39;;;;;;;34.25;7.95;;;11.30;99.90;;;11.42;100.00;97617.72;4829659;29;20057;-67
2023/11/03 04:21:07;;;;;;;36.53;7.15;;;11.20;99.90;;;11.42;100.00;97621.19;4829423;29;20057;-66
2023/11/03 04:23:36;;;;;;;40.60;6.90;;;11.20;99.90;;;11.52;100.00;97621.47;4829823;29;20489;-66
2023/11/03 04:26:04;;;;;;;36.80;7.45;;;11.30;99.90;;;11.47;100.00;97636.78;4829712;29;20401;-66
2023/11/03 04:28:33;;;;;;;40.03;8.15;;;11.20;99.90;;;11.49;100.00;97629.63;4829051;29;20066;-66
2023/11/03 04:31:01;;;;;;;38.35;8.05;;;11.30;99.90;;;11.50;100.00;97663.06;4828240;29;20477;-66
2023/11/03 04:33:30;;;;;;;34.60;7.88;;;11.30;99.90;;;11.51;100.00;97647.13;4829621;29;20057;-66
2023/11/03 04:36:00;;;;;;;33.20;7.18;;;11.20;99.90;;;11.54;100.00;97648.72;4829173;29;20061;-65
2023/11/03 04:38:28;;;;;;;29.95;7.35;;;11.30;99.90;;;11.61;100.00;97650.88;4829154;29;20111;-66
2023/11/03 04:40:56;;;;;;;33.95;8.45;;;11.40;99.90;;;11.59;100.00;97644.00;4829374;29;20055;-66
2023/11/03 04:43:25;;;;;;;45.20;9.65;;;11.40;99.90;;;11.57;100.00;97656.47;4829075;29;20497;-66
2023/11/03 04:45:53;;;;;;;31.50;7.45;;;11.30;99.90;;;11.56;100.00;97655.63;4829035;29;20103;-66
2023/11/03 04:48:21;;;;;;;38.25;7.75;;;11.40;99.90;;;11.53;100.00;97678.78;4812825;29;20532;-66
2023/11/03 04:50:49;;;;;;;30.27;8.05;;;11.30;99.90;;;11.64;100.00;97660.44;4827999;29;20466;-66
2023/11/03 04:53:20;;;;;;;30.23;7.65;;;11.40;99.90;;;11.70;100.00;97671.56;4829002;29;20061;-66
2023/11/03 04:55:48;;;;;;;33.20;7.47;;;11.40;99.90;;;11.76;100.00;97671.19;4828031;29;20145;-66
2023/11/03 04:58:18;;;;;;;33.78;7.53;;;11.50;99.90;;;11.08;100.00;97551.88;4829240;29;20062;-66
2023/11/03 05:00:47;;;;;;;42.45;8.05;;;11.50;99.90;;;11.69;100.00;97664.56;4829456;29;20165;-66
2023/11/03 05:03:16;;;;;;;40.35;8.75;;;11.50;99.90;;;11.73;100.00;97665.22;4829205;29;20097;-66
2023/11/03 05:05:45;;;;;;;42.25;9.57;;;11.50;99.90;;;11.67;100.00;97666.44;4828863;29;20137;-66
2023/11/03 05:08:13;;;;;;;39.85;9.50;;;11.50;99.90;;;11.75;100.00;97677.44;4828799;29;20417;-66
2023/11/03 05:10:46;;;;;;;43.35;9.27;;;11.50;99.90;;;11.80;100.00;97666.56;4828696;29;20054;-66
2023/11/03 05:13:15;;;;;;;54.95;10.88;;;11.50;99.90;;;11.79;100.00;97675.44;4825941;29;20475;-66
2023/11/03 05:15:44;;;;;;;39.13;9.27;;;11.60;99.90;;;11.79;100.00;97688.66;4825895;29;20053;-67
2023/11/03 05:18:12;;;;;;;32.75;8.20;;;11.60;99.90;;;11.70;100.00;97694.53;4826157;29;20399;-66
2023/11/03 05:20:41;;;;;;;40.40;7.93;;;11.50;99.90;;;11.60;100.00;97686.25;4825898;29;20450;-66
2023/11/03 05:23:09;;;;;;;32.30;7.68;;;11.40;99.90;;;11.56;100.00;97686.53;4826033;29;20046;-67
2023/11/03 05:25:38;;;;;;;37.20;8.35;;;11.40;99.90;;;11.60;100.00;97694.19;4826345;29;20058;-66
2023/11/03 05:28:08;;;;;;;44.63;11.15;;;11.40;99.90;;;11.74;100.00;97696.91;4825669;29;20066;-66
2023/11/03 05:30:36;;;;;;;43.53;9.57;;;11.50;99.90;;;11.75;100.00;97719.78;4826169;29;20058;-66
2023/11/03 05:33:05;;;;;;;33.10;10.18;;;11.50;99.90;;;11.87;100.00;97730.56;4825683;29;20727;-67
2023/11/03 05:35:33;;;;;;;33.90;7.95;;;11.60;99.90;;;11.21;100.00;97611.03;4825957;29;20107;-67
2023/11/03 05:38:02;;;;;;;35.05;7.80;;;11.60;99.90;;;11.76;100.00;97729.44;4825626;29;20050;-67
2023/11/03 05:40:30;;;;;;;38.58;7.38;;;11.60;99.90;;;11.83;100.00;97735.22;4825509;29;20046;-67
2023/11/03 05:42:59;;;;;;;32.65;7.10;;;11.60;99.90;;;11.77;100.00;97749.66;4824113;29;20085;-66
2023/11/03 05:45:28;;;;;;;26.48;6.30;;;11.50;99.90;;;11.55;100.00;97746.56;4824313;29;20514;-66
2023/11/03 05:47:57;;;;;;;21.02;5.88;;;11.40;99.90;;;11.51;100.00;97758.25;4825189;29;20054;-66
2023/11/03 05:50:29;;;;;;;27.85;6.75;;;11.30;99.90;;;11.41;100.00;97767.66;4825533;29;20061;-67
2023/11/03 05:52:58;;;;;;;22.98;5.93;;;11.20;99.90;;;11.44;100.00;97767.47;4825491;29;20043;-66
2023/11/03 05:55:27;;;;;;;21.70;5.45;;;11.20;99.90;;;11.33;100.00;97775.19;4825241;29;20059;-67
2023/11/03 05:57:55;;;;;;;21.27;5.68;;;11.10;99.90;;;11.41;100.00;97780.91;4825313;29;20091;-66
2023/11/03 06:00:27;;;;;;;16.60;5.13;;;11.20;99.90;;;11.42;100.00;97784.41;4825022;29;20078;-66
2023/11/03 06:02:57;;;;;;;20.75;4.93;;;11.10;99.90;;;11.37;100.00;97789.94;4825292;29;20068;-66
2023/11/03 06:05:25;;;;;;;22.20;5.63;;;11.10;99.90;;;11.40;100.00;97781.81;4825286;29;20046;-66
2023/11/03 06:07:54;;;;;;;21.92;5.55;;;11.20;99.90;;;11.40;100.00;97797.69;4824746;29;20053;-66
2023/11/03 06:10:22;;;;;;;26.23;6.47;;;11.20;99.90;;;11.45;100.00;97803.59;4825134;29;20074;-66
2023/11/03 06:12:50;;;;;;;30.90;6.82;;;11.20;99.90;;;11.40;100.00;97796.88;4824815;29;20051;-66
2023/11/03 06:15:19;;;;;;;26.98;7.15;;;11.20;99.90;;;11.27;100.00;97802.00;4824738;29;20145;-66
2023/11/03 06:17:47;;;;;;;28.45;6.78;;;11.10;99.90;;;11.25;100.00;97814.44;4824687;29;20118;-66
2023/11/03 06:20:17;;;;;;;26.00;6.50;;;11.10;99.90;;;11.31;100.00;97821.19;4823756;29;20142;-66
2023/11/03 06:22:46;;;;;;;22.10;6.77;;;11.10;99.90;;;11.33;100.00;97837.81;4823211;29;20062;-66
2023/11/03 06:25:14;;;;;;;22.52;6.28;;;11.10;99.90;;;10.82;100.00;97752.50;4824776;29;20042;-67
2023/11/03 06:27:42;;;;;;;27.63;6.45;;;11.10;99.90;;;11.27;100.00;97839.03;4824352;29;20089;-66
2023/11/03 06:30:11;;;;;;;22.27;6.47;;;11.10;99.90;;;11.25;100.00;97840.03;4824731;29;20050;-66
2023/11/03 06:32:40;;;;;;;26.27;7.00;;;11.00;99.90;;;11.25;100.00;97842.69;4824874;29;20047;-66
2023/11/03 06:35:09;;;;;;;25.67;6.18;;;11.00;99.90;;;11.18;100.00;97852.78;4823554;29;20061;-66
2023/11/03 06:37:38;;;;;;;24.90;6.32;;;11.00;99.90;;;11.19;100.00;97848.34;4824982;29;20053;-67
2023/11/03 06:40:10;;;;;;;29.52;7.03;;;11.00;99.90;;;11.18;100.00;97868.66;4824613;29;20047;-66
2023/11/03 06:42:39;;;;;;;23.02;6.20;;;11.00;99.90;;;11.12;100.00;97837.25;4823497;29;20149;-66
2023/11/03 06:45:09;;;;;;;21.00;5.72;;;10.90;99.90;;;10.91;100.00;97841.06;4824492;29;20051;-66
2023/11/03 06:47:37;;;;;;;32.80;6.75;;;10.90;99.90;;;11.02;100.00;97862.47;4824372;29;20050;-66
2023/11/03 06:50:09;;;;;;;24.65;7.32;;;10.80;99.90;;;11.00;100.00;97863.47;4824310;29;20058;-67
2023/11/03 06:52:39;;;;;;;25.80;6.03;;;10.80;99.90;;;11.03;100.00;97876.56;4823347;29;20382;-66
2023/11/03 06:55:09;;;;;;;21.48;5.60;;;10.80;99.90;;;11.04;100.00;97857.97;4824563;29;20184;-67
2023/11/03 06:57:40;;;;;;;23.48;5.65;;;10.90;99.90;;;11.14;100.00;97885.63;4824272;29;20524;-66
2023/11/03 07:00:12;;;;;;;27.83;6.40;;;10.90;99.90;;;11.18;100.00;97887.16;4823511;29;20046;-66
2023/11/03 07:02:41;;;;;;;24.77;6.45;;;11.00;99.90;;;11.13;100.00;97886.53;4824306;29;20050;-67
2023/11/03 07:05:09;;;;;;;20.75;6.00;;;11.00;99.90;;;11.18;100.00;97881.88;4823173;29;20062;-66
2023/11/03 07:07:39;;;;;;;21.83;5.55;;;11.00;99.90;;;11.18;100.00;97903.03;4824241;29;20050;-66
2023/11/03 07:10:10;;;;;;;24.80;5.78;;;10.90;99.90;;;11.19;100.00;97904.72;4824456;29;20059;-66
2023/11/03 07:12:38;;;;;;;33.15;6.03;;;11.00;99.90;;;11.20;100.00;97903.81;4824093;29;20043;-66
2023/11/03 07:15:10;;;;;;;21.85;5.78;;;11.00;99.90;;;11.20;100.00;97911.75;4824600;29;20054;-66
2023/11/03 07:17:39;;;;;;;21.52;5.53;;;11.00;99.90;;;11.29;100.00;97911.22;4824076;29;20061;-67
2023/11/03 07:20:09;;;;;;;25.08;6.05;;;11.10;99.90;;;11.36;100.00;97923.16;4824078;29;20061;-68
2023/11/03 07:22:39;;;;;;;24.05;6.18;;;11.10;99.90;;;11.45;100.00;97937.69;4824348;29;20054;-68
2023/11/03 07:25:07;;;;;;;29.43;7.10;;;11.20;99.90;;;11.41;100.00;97925.56;4824247;29;20054;-66
2023/11/03 07:27:37;;;;;;;26.90;6.13;;;11.20;99.90;;;11.47;100.00;97919.94;4824221;29;20084;-66
2023/11/03 07:30:09;;;;;;;25.45;6.13;;;11.20;99.90;;;11.40;100.00;97919.41;4824059;29;20059;-66
2023/11/03 07:32:37;;;;;;;30.13;6.63;;;11.20;99.90;;;11.44;100.00;97925.41;4823777;29;20046;-67
2023/11/03 07:35:06;;;;;;;30.98;6.05;;;11.20;99.90;;;11.47;100.00;97941.97;4823164;29;20082;-66
2023/11/03 07:37:35;;;;;;;26.05;6.40;;;11.30;99.90;;;11.53;100.00;97948.72;4823538;29;20492;-66
2023/11/03 07:40:10;;;;;;;28.38;6.10;;;11.30;99.90;;;11.51;100.00;97954.09;4823815;29;20062;-67
2023/11/03 07:42:40;;;;;;;22.92;6.10;;;11.30;99.90;;;11.63;100.00;97952.56;4823854;29;20126;-65
2023/11/03 07:45:11;;;;;;;27.10;5.68;;;11.40;99.90;;;11.66;100.00;97961.22;4822414;29;20062;-65
2023/11/03 07:47:42;;;;;;;;;;;11.40;99.90;;;11.74;100.00;97966.09;4823860;29;20057;-66
2023/11/03 07:50:11;;;;;;;24.02;5.68;;;11.50;99.90;;;11.74;100.00;97971.38;4822483;29;19924;-65
2023/11/03 07:52:40;;;;;;;26.15;6.05;;;11.50;99.90;;;11.67;100.00;97970.88;4823257;29;20081;-64
2023/11/03 07:55:11;;;;;;;24.63;6.25;;;11.50;99.90;;;11.57;100.00;97943.19;4823581;29;20111;-63
2023/11/03 07:57:40;;;;;;;25.13;5.75;;;11.50;99.90;;;11.73;100.00;97972.31;4822311;29;20062;-65
2023/11/03 08:00:10;;;;;;;25.27;5.55;;;11.50;99.90;;;11.51;100.00;97951.47;4823513;29;20050;-64
2023/11/03 08:02:41;;;;;;;18.10;5.45;;;11.50;99.90;;;11.70;100.00;97978.66;4823164;29;20125;-64
2023/11/03 08:05:10;;;;;;;24.67;5.97;;;11.40;99.90;;;11.75;100.00;97995.13;4823180;29;20524;-64
2023/11/03 08:07:39;;;;;;;28.58;5.95;;;11.50;99.90;;;11.63;100.00;97957.88;4823219;29;20497;-64
2023/11/03 08:10:12;;;;;;;20.85;5.85;;;11.40;99.90;;;11.67;100.00;97993.84;4823089;29;20544;-62
2023/11/03 08:12:41;;;;;;;22.40;5.45;;;11.40;99.90;;;11.68;100.00;97988.47;4823268;29;20054;-63
2023/11/03 08:15:10;;;;;;;20.27;5.63;;;11.50;99.90;;;11.71;100.00;97993.59;4823633;29;20129;-63
2023/11/03 08:17:44;;;;;;;28.02;6.28;;;11.50;99.90;;;11.76;100.00;97990.69;4822266;29;20126;-63
2023/11/03 08:20:15;;;;;;;20.73;5.80;;;11.60;99.90;;;11.81;100.00;98004.53;4823319;29;20497;-63
2023/11/03 08:22:44;;;;;;;26.25;6.65;;;11.60;99.90;;;11.84;100.00;98006.16;4823462;29;20057;-62
2023/11/03 08:25:14;;;;;;;20.60;5.95;;;11.60;99.90;;;11.83;100.00;98013.22;4823214;29;20092;-62
2023/11/03 08:27:43;;;;;;;27.20;6.90;;;11.60;99.90;;;11.86;100.00;98006.94;4821900;29;20153;-62
2023/11/03 08:30:12;;;;;;;26.30;6.97;;;11.60;99.90;;;11.66;100.00;97990.34;4823438;29;20067;-62
2023/11/03 08:32:41;;;;;;;19.27;5.85;;;11.60;99.90;;;11.82;100.00;98024.78;4823361;29;20046;-63
2023/11/03 08:35:11;;;;;;;26.50;6.07;;;11.60;99.90;;;11.74;100.00;98013.75;4823162;29;20057;-63
2023/11/03 08:37:41;;;;;;;21.67;5.97;;;11.60;99.90;;;11.76;100.00;98027.75;4823778;29;20493;-63
2023/11/03 08:40:11;;;;;;;23.98;5.68;;;11.50;99.90;;;11.68;100.00;98014.94;4823448;29;20050;-63
2023/11/03 08:42:44;;;;;;;24.35;5.57;;;11.50;99.90;;;11.67;100.00;98038.88;4823126;29;20076;-63
2023/11/03 08:45:13;;;;;;;19.77;5.75;;;11.50;99.90;;;11.51;100.00;98024.72;4823199;29;20133;-63
2023/11/03 08:47:42;;;;;;;18.88;5.30;;;11.50;99.90;;;11.53;100.00;98014.88;4826124;29;20079;-63
2023/11/03 08:50:12;;;;;;;25.48;6.22;;;11.50;99.90;;;11.63;100.00;98058.47;4826098;29;20493;-63
2023/11/03 08:52:41;;;;;;;18.47;5.47;;;11.40;99.90;;;11.68;100.00;98069.69;4824741;29;20061;-65
2023/11/03 08:55:10;;;;;;;19.20;6.05;;;11.40;99.90;;;11.66;100.00;98064.47;4826284;29;20299;-64
2023/11/03 08:57:42;;;;;;;29.77;6.55;;;11.50;99.90;;;11.63;100.00;98054.00;4824931;29;20490;-63
2023/11/03 09:00:15;;;;;;;22.52;5.85;;;11.50;99.90;;;11.66;100.00;98064.47;4826074;29;20062;-63
2023/11/03 09:02:47;;;;;;;23.65;6.90;;;11.50;99.90;;;11.68;100.00;98061.75;4826190;29;20574;-63
2023/11/03 09:05:16;;;;;;;27.73;6.47;;;11.40;99.90;;;11.64;100.00;98065.44;4825911;29;20043;-63
2023/11/03 09:07:46;;;;;;;27.20;6.20;;;11.40;99.90;;;11.47;100.00;98031.97;4825996;29;20335;-64
2023/11/03 09:10:15;;;;;;;30.87;6.07;;;11.50;99.90;;;11.64;100.00;98098.09;4825956;29;20543;-64
2023/11/03 09:12:47;;;;;;;25.50;6.45;;;11.50;99.90;;;11.67;100.00;98082.06;4825885;29;20497;-64
2023/11/03 09:15:17;;;;;;;29.50;6.70;;;11.50;99.90;;;11.75;100.00;98081.63;4825001;29;20065;-64
2023/11/03 09:17:46;;;;;;;26.60;6.40;;;11.50;99.90;;;11.79;100.00;98093.78;4826052;29;20046;-64
2023/11/03 09:20:17;;;;;;;22.25;6.40;;;11.60;99.90;;;11.82;100.00;98077.75;4825835;29;20049;-63
2023/11/03 09:22:48;;;;;;;22.10;6.05;;;11.60;99.90;;;11.83;100.00;98097.97;4826135;29;20430;-63
2023/11/03 09:25:17;;;;;;;25.38;5.72;;;11.60;99.90;;;11.80;100.00;98090.22;4826134;29;20126;-63
2023/11/03 09:27:47;;;;;;;23.30;6.05;;;11.60;99.90;;;11.69;100.00;98093.41;4825907;29;20070;-64
2023/11/03 09:30:16;;;;;;;21.42;6.40;;;11.50;99.90;;;11.69;100.00;98105.81;4825846;29;20096;-63
2023/11/03 09:32:47;;;;;;;24.35;6.00;;;11.50;99.90;;;11.63;100.00;98101.66;4825913;29;20485;-63
2023/11/03 09:35:17;;;;;;;20.02;6.55;;;11.40;99.90;;;11.70;100.00;98094.28;4826296;29;20087;-63
2023/11/03 09:37:45;;;;;;;16.88;5.80;;;11.50;99.90;;;11.83;100.00;98115.69;4824560;29;20058;-62
2023/11/03 09:40:20;;;;;;;23.13;6.53;;;11.60;99.90;;;11.80;100.00;98121.97;4825651;29;20129;-62
2023/11/03 09:42:50;;;;;;;27.85;6.82;;;11.60;99.90;;;11.72;100.00;98111.81;4825649;29;20137;-62
2023/11/03 09:45:23;;;;;;;22.75;5.88;;;11.50;99.90;;;11.55;100.00;98088.00;4825653;29;20085;-62
2023/11/03 09:47:54;;;;;;;20.85;6.93;;;11.60;99.90;;;11.10;100.00;98020.75;4825803;29;20073;-61
2023/11/03 09:50:24;;;;;;;21.17;6.13;;;11.50;99.90;;;11.78;100.00;98127.38;4825578;29;20051;-63
2023/11/03 09:52:55;;;;;;;27.77;6.40;;;11.50;99.90;;;11.72;100.00;98134.78;4824271;29;20058;-64
2023/11/03 09:55:24;;;;;;;18.92;5.75;;;11.50;99.90;;;11.83;100.00;98145.63;4825949;29;20042;-63
2023/11/03 09:58:01;;;;;;;26.05;6.07;;;11.60;99.90;;;11.82;100.00;98124.53;4824831;29;20057;-63
2023/11/03 10:00:31;;;;;;;20.52;6.03;;;11.60;99.90;;;11.95;100.00;98128.25;4825339;29;20413;-63
2023/11/03 10:02:59;;;;;;;18.25;5.05;;;11.70;99.90;;;11.91;100.00;98116.97;4825278;29;20053;-63
2023/11/03 10:05:31;;;;;;;26.92;6.07;;;11.70;99.90;;;11.93;100.00;98125.69;4825660;29;20054;-63
2023/11/03 10:08:02;;;;;;;25.48;6.38;;;11.70;99.90;;;11.82;100.00;98133.34;4825662;29;20130;-65
2023/11/03 10:10:34;;;;;;;;;;;11.70;99.90;;;11.97;100.00;98142.25;4825295;29;20062;-63
2023/11/03 10:13:05;;;;;;;22.75;6.18;;;11.70;99.90;;;12.04;100.00;98143.66;4824820;29;19964;-63
2023/11/03 10:15:36;;;;;;;27.42;6.40;;;11.80;99.90;;;12.04;100.00;98143.66;4824602;29;20057;-63
2023/11/03 10:18:07;;;;;;;29.85;7.43;;;11.80;99.90;;;12.04;100.00;98143.66;4824616;29;20087;-63